Terminal Aerodrome Forecast
Issued by NWS

Home | Current Version | Previous Version | Text Only | Print | Product List | Glossary Off
Versions: 1 2 3 4 5 6 7 8 9 10 11 12 13 14 15 16 17 18 19 20

000
FTUS43 KMPX 052146 AAA
TAFAXN
TAF AMD
KAXN 052146Z 0522/0618 14016G25KT P6SM BKN060
     FM060000 13013KT P6SM SCT025 OVC060
     FM060600 12010KT P6SM VCSH OVC015
     FM061200 13014G20KT 5SM -RA BR SCT015 BKN025=

USA.gov is the U.S. government's official web portal to all federal, state and local government web resources and services.